createdAt,value
2022-09-29T00:01:37.544Z,1.40
2022-09-29T00:04:04.177Z,1.50
2022-09-29T00:06:30.832Z,1.13
2022-09-29T00:08:58.189Z,1.38
2022-09-29T00:11:24.927Z,1.35
2022-09-29T00:13:51.541Z,1.33
2022-09-29T00:16:18.163Z,1.40
2022-09-29T00:18:45.068Z,1.30
2022-09-29T00:21:20.837Z,1.60
2022-09-29T00:23:48.251Z,1.27
2022-09-29T00:26:19.918Z,1.45
2022-09-29T00:28:48.568Z,1.30
2022-09-29T00:31:15.256Z,1.15
2022-09-29T00:33:41.977Z,1.10
2022-09-29T00:36:11.146Z,1.10
2022-09-29T00:38:37.787Z,1.35
2022-09-29T00:41:05.007Z,1.40
2022-09-29T00:43:51.561Z,1.13
2022-09-29T00:46:31.141Z,1.20
2022-09-29T00:48:59.867Z,1.42
2022-09-29T00:51:26.885Z,1.30
2022-09-29T00:53:53.841Z,1.48
2022-09-29T00:56:20.427Z,1.38
2022-09-29T00:58:48.527Z,1.30
2022-09-29T01:01:15.494Z,1.20
2022-09-29T01:03:43.485Z,1.27
2022-09-29T01:06:18.943Z,1.00
2022-09-29T01:11:14.389Z,1.13
2022-09-29T01:13:41.127Z,1.25
2022-09-29T01:16:08.097Z,1.20
2022-09-29T01:18:35.304Z,1.20
2022-09-29T01:21:41.001Z,1.38
2022-09-29T01:24:39.800Z,1.30
2022-09-29T01:27:31.053Z,1.17
2022-09-29T01:30:18.765Z,1.40
2022-09-29T01:33:07.054Z,1.30
2022-09-29T01:36:10.804Z,1.40
2022-09-29T01:39:10.421Z,1.83
2022-09-29T01:41:53.944Z,1.50
2022-09-29T01:44:20.502Z,1.20
2022-09-29T01:46:50.185Z,1.10
2022-09-29T01:49:17.015Z,1.40
2022-09-29T01:51:50.000Z,1.33
2022-09-29T01:54:19.560Z,1.15
2022-09-29T01:56:54.803Z,1.05
2022-09-29T01:59:49.447Z,1.23
2022-09-29T02:02:41.369Z,1.20
2022-09-29T02:05:37.118Z,1.00
2022-09-29T02:08:23.413Z,1.08
2022-09-29T02:11:08.399Z,1.23
2022-09-29T02:13:44.467Z,1.23
2022-09-29T02:16:12.482Z,1.20
2022-09-29T02:18:47.762Z,1.42
2022-09-29T02:21:14.569Z,1.30
2022-09-29T02:23:41.210Z,1.10
2022-09-29T02:26:07.752Z,1.40
2022-09-29T02:28:34.299Z,1.30
2022-09-29T02:31:00.884Z,1.17
2022-09-29T02:33:27.448Z,1.20
2022-09-29T02:36:15.866Z,1.50
2022-09-29T02:38:52.600Z,1.30
2022-09-29T02:41:26.332Z,1.30
2022-09-29T02:44:10.080Z,1.35
2022-09-29T02:46:45.458Z,1.52
2022-09-29T02:49:24.030Z,1.38
2022-09-29T02:51:57.569Z,1.50
2022-09-29T02:55:02.479Z,1.40
2022-09-29T02:57:48.460Z,1.45
2022-09-29T03:02:42.502Z,1.17
2022-09-29T03:05:13.525Z,1.30
2022-09-29T03:07:40.147Z,1.90
2022-09-29T03:10:07.232Z,1.48
2022-09-29T03:12:34.327Z,1.60
2022-09-29T03:15:00.919Z,1.65
2022-09-29T03:17:27.556Z,1.42
2022-09-29T03:19:54.200Z,1.98
2022-09-29T03:22:20.778Z,1.80
2022-09-29T03:24:47.334Z,1.67
2022-09-29T03:27:14.208Z,1.63
2022-09-29T03:29:40.857Z,1.52
2022-09-29T03:32:07.484Z,1.67
2022-09-29T03:34:34.238Z,1.70
2022-09-29T03:37:00.898Z,1.50
2022-09-29T03:39:27.794Z,1.90
2022-09-29T03:41:54.374Z,1.88
2022-09-29T03:44:21.003Z,1.73
2022-09-29T03:46:47.950Z,2.00
2022-09-29T03:49:14.760Z,2.30
2022-09-29T03:51:41.736Z,1.88
2022-09-29T03:54:08.681Z,2.03
2022-09-29T03:56:36.066Z,1.52
2022-09-29T03:59:02.726Z,1.80
2022-09-29T04:01:29.305Z,1.35
2022-09-29T04:03:55.892Z,2.00
2022-09-29T04:06:22.826Z,1.52
2022-09-29T04:08:49.421Z,1.80
2022-09-29T04:11:16.029Z,1.60
2022-09-29T04:13:42.929Z,1.58
2022-09-29T04:16:09.745Z,1.83
2022-09-29T04:18:36.653Z,1.50
2022-09-29T04:21:07.467Z,1.25
2022-09-29T04:23:34.424Z,1.25
2022-09-29T04:26:01.425Z,1.30
2022-09-29T04:28:28.292Z,1.60
2022-09-29T04:30:54.897Z,1.60
2022-09-29T04:33:21.568Z,1.55
2022-09-29T04:35:48.237Z,1.73
2022-09-29T04:38:14.907Z,1.60
2022-09-29T04:40:41.646Z,1.73
2022-09-29T04:43:08.336Z,1.58
2022-09-29T04:45:35.052Z,1.92
2022-09-29T04:48:01.833Z,1.50
2022-09-29T04:50:28.707Z,1.70
2022-09-29T04:52:55.641Z,1.67
2022-09-29T04:55:22.213Z,1.58
2022-09-29T04:57:48.996Z,1.50
2022-09-29T05:00:15.743Z,1.65
2022-09-29T05:02:45.547Z,1.60
2022-09-29T05:05:14.460Z,1.33
2022-09-29T05:07:41.206Z,1.45
2022-09-29T05:10:09.127Z,1.65
2022-09-29T05:12:35.807Z,1.70
2022-09-29T05:15:02.586Z,1.67
2022-09-29T05:17:29.100Z,1.60
2022-09-29T05:19:55.673Z,1.63
2022-09-29T05:22:22.319Z,1.52
2022-09-29T05:24:48.949Z,1.60
2022-09-29T05:27:15.812Z,1.55
2022-09-29T05:29:42.385Z,1.80
2022-09-29T05:32:09.192Z,1.52
2022-09-29T05:34:35.837Z,1.67
2022-09-29T05:37:02.470Z,1.63
2022-09-29T05:39:29.062Z,1.40
2022-09-29T05:41:59.487Z,1.60
2022-09-29T05:44:26.736Z,1.60
2022-09-29T05:46:53.419Z,1.58
2022-09-29T05:49:20.531Z,1.70
2022-09-29T05:51:47.196Z,1.50
2022-09-29T05:54:13.809Z,1.60
2022-09-29T05:56:45.047Z,1.67
2022-09-29T05:59:12.180Z,1.58
2022-09-29T06:01:38.977Z,2.00
2022-09-29T06:04:05.602Z,1.80
2022-09-29T06:06:32.577Z,1.80
2022-09-29T06:08:59.328Z,1.58
2022-09-29T06:11:28.012Z,1.55
2022-09-29T06:13:54.768Z,1.27
2022-09-29T06:16:23.718Z,1.67
2022-09-29T06:18:50.420Z,1.70
2022-09-29T06:21:19.624Z,1.95
2022-09-29T06:23:46.442Z,1.58
2022-09-29T06:26:14.152Z,1.73
2022-09-29T06:28:40.816Z,1.35
2022-09-29T06:31:18.032Z,1.52
2022-09-29T06:33:45.232Z,1.75
2022-09-29T06:36:23.608Z,2.00
2022-09-29T06:38:50.229Z,1.60
2022-09-29T06:41:16.833Z,1.50
2022-09-29T06:43:43.450Z,1.60
2022-09-29T06:46:10.151Z,2.13
2022-09-29T06:48:36.829Z,1.83
2022-09-29T06:51:10.127Z,1.88
2022-09-29T06:53:38.908Z,1.63
2022-09-29T06:56:06.155Z,1.55
2022-09-29T06:58:32.993Z,1.50
2022-09-29T07:01:03.566Z,1.80
2022-09-29T07:03:30.424Z,1.70
2022-09-29T07:08:45.173Z,1.70
2022-09-29T07:11:11.881Z,1.55
2022-09-29T07:13:38.820Z,1.95
2022-09-29T07:16:09.510Z,1.40
2022-09-29T07:18:37.082Z,1.70
2022-09-29T07:21:06.805Z,1.45
2022-09-29T07:23:33.524Z,1.70
2022-09-29T07:26:00.161Z,1.80
2022-09-29T07:28:27.580Z,1.67
2022-09-29T07:31:21.569Z,1.40
2022-09-29T07:33:49.716Z,1.67
2022-09-29T07:36:18.225Z,1.40
2022-09-29T07:38:49.263Z,1.67
2022-09-29T07:41:16.630Z,1.58
2022-09-29T07:43:43.267Z,1.83
2022-09-29T07:46:09.962Z,2.00
2022-09-29T07:48:36.893Z,1.88
2022-09-29T07:51:06.664Z,1.90
2022-09-29T07:53:33.345Z,1.70
2022-09-29T07:56:07.801Z,1.92
2022-09-29T07:58:34.614Z,1.70
2022-09-29T08:01:01.774Z,1.58
2022-09-29T08:03:28.535Z,1.80
2022-09-29T08:05:55.434Z,1.67
2022-09-29T08:08:22.691Z,1.75
2022-09-29T08:10:53.177Z,1.42
2022-09-29T08:13:20.697Z,1.60
2022-09-29T08:15:47.292Z,1.33
2022-09-29T08:18:14.116Z,1.80
2022-09-29T08:20:40.860Z,1.70
2022-09-29T08:23:07.436Z,1.88
2022-09-29T08:25:34.249Z,1.70
2022-09-29T08:28:01.183Z,1.42
2022-09-29T08:30:27.830Z,1.40
2022-09-29T08:32:54.757Z,1.70
2022-09-29T08:35:21.656Z,1.50
2022-09-29T08:37:48.265Z,1.33
2022-09-29T08:40:15.103Z,1.70
2022-09-29T08:42:49.194Z,1.38
2022-09-29T08:45:28.561Z,1.70
2022-09-29T08:47:57.667Z,1.60
2022-09-29T08:50:30.285Z,1.35
2022-09-29T08:53:03.106Z,1.67
2022-09-29T08:55:43.605Z,1.40
2022-09-29T08:58:14.075Z,1.40
2022-09-29T09:00:52.014Z,1.30
2022-09-29T09:03:27.524Z,1.48
2022-09-29T09:08:53.275Z,2.03
2022-09-29T09:11:25.878Z,1.42
2022-09-29T09:14:04.317Z,1.35
2022-09-29T09:16:34.096Z,1.52
2022-09-29T09:19:09.911Z,1.50
2022-09-29T09:21:43.241Z,1.40
2022-09-29T09:24:19.178Z,1.20
2022-09-29T09:26:48.250Z,1.63
2022-09-29T09:29:37.474Z,1.52
2022-09-29T09:32:13.367Z,1.17
2022-09-29T09:37:20.617Z,1.35
2022-09-29T09:39:56.235Z,1.20
2022-09-29T09:42:28.019Z,1.20
2022-09-29T09:44:58.469Z,1.30
2022-09-29T09:47:31.239Z,0.98
2022-09-29T09:50:01.884Z,1.00
2022-09-29T09:52:33.590Z,0.95
2022-09-29T09:55:02.872Z,1.13
2022-09-29T09:57:57.380Z,1.05
2022-09-29T10:00:44.951Z,0.90
2022-09-29T10:03:11.872Z,1.20
2022-09-29T10:05:42.911Z,0.90
2022-09-29T10:08:21.868Z,1.00
2022-09-29T10:10:58.110Z,0.90
2022-09-29T10:13:29.479Z,0.95
2022-09-29T10:16:23.231Z,1.15
2022-09-29T10:18:50.373Z,0.90
2022-09-29T10:21:19.932Z,1.00
2022-09-29T10:23:56.306Z,1.08
2022-09-29T10:26:34.632Z,1.00
2022-09-29T10:29:30.939Z,1.00
2022-09-29T10:32:02.345Z,0.80
2022-09-29T10:34:28.978Z,1.00
2022-09-29T10:37:06.378Z,1.00
2022-09-29T10:39:46.502Z,1.00
2022-09-29T10:42:20.610Z,1.20
2022-09-29T10:44:55.067Z,0.77
2022-09-29T10:47:22.193Z,0.95
2022-09-29T10:49:49.095Z,0.93
2022-09-29T10:52:26.058Z,0.90
2022-09-29T10:54:57.973Z,0.85
2022-09-29T10:57:29.134Z,0.80
2022-09-29T10:59:56.114Z,0.90
2022-09-29T11:02:38.927Z,0.73
2022-09-29T11:05:16.377Z,0.77
2022-09-29T11:07:44.771Z,0.80
2022-09-29T11:10:31.497Z,0.85
2022-09-29T11:12:58.128Z,0.80
2022-09-29T11:15:26.791Z,0.80
2022-09-29T11:17:53.539Z,0.80
2022-09-29T11:20:20.187Z,0.90
2022-09-29T11:23:22.281Z,0.90
2022-09-29T11:26:06.444Z,0.88
2022-09-29T11:28:48.566Z,1.00
2022-09-29T11:31:31.436Z,0.80
2022-09-29T11:34:32.388Z,0.93
2022-09-29T11:37:11.777Z,0.90
2022-09-29T11:39:58.530Z,0.80
2022-09-29T11:42:55.545Z,0.80
2022-09-29T11:45:23.342Z,0.90
2022-09-29T11:48:18.080Z,0.80
2022-09-29T11:51:06.583Z,0.80
2022-09-29T11:53:33.128Z,0.80
2022-09-29T11:56:29.268Z,0.85
2022-09-29T11:58:58.650Z,0.80
2022-09-29T12:01:37.198Z,0.85
2022-09-29T12:04:31.666Z,0.80
2022-09-29T12:07:14.702Z,1.00
2022-09-29T12:09:56.568Z,0.98
2022-09-29T12:12:25.740Z,0.88
2022-09-29T12:15:17.184Z,0.90
2022-09-29T12:17:48.800Z,0.98
2022-09-29T12:20:32.298Z,1.10
2022-09-29T12:22:59.689Z,1.10
2022-09-29T12:25:28.007Z,0.82
2022-09-29T12:28:00.560Z,0.70
2022-09-29T12:30:27.023Z,0.80
2022-09-29T12:32:59.544Z,0.60
2022-09-29T12:35:34.808Z,0.90
2022-09-29T12:38:35.332Z,0.77
2022-09-29T12:41:15.097Z,0.60
2022-09-29T12:44:00.965Z,0.50
2022-09-29T12:49:13.737Z,0.52
2022-09-29T12:51:45.592Z,0.80
2022-09-29T12:54:18.352Z,1.00
2022-09-29T12:57:19.719Z,2.40
2022-09-29T12:59:49.182Z,3.40
2022-09-29T13:02:43.693Z,2.45
2022-09-29T13:05:28.004Z,2.30
2022-09-29T13:08:31.468Z,1.35
2022-09-29T13:11:35.523Z,1.40
2022-09-29T13:14:22.929Z,1.45
2022-09-29T13:17:01.049Z,1.00
2022-09-29T13:19:58.191Z,1.13
2022-09-29T13:22:28.124Z,1.10
2022-09-29T13:25:14.051Z,1.00
2022-09-29T13:27:44.747Z,0.85
2022-09-29T13:30:11.183Z,0.93
2022-09-29T13:32:45.104Z,0.80
2022-09-29T13:35:16.861Z,0.80
2022-09-29T13:38:23.322Z,0.80
2022-09-29T13:41:15.789Z,0.60
2022-09-29T13:43:51.548Z,0.90
2022-09-29T13:46:28.151Z,0.68
2022-09-29T13:49:02.213Z,0.85
2022-09-29T13:51:40.596Z,0.70
2022-09-29T13:54:30.574Z,0.60
2022-09-29T13:57:12.792Z,0.60
2022-09-29T13:59:54.923Z,0.57
2022-09-29T14:02:34.305Z,0.70
2022-09-29T14:05:01.144Z,0.50
2022-09-29T14:07:38.249Z,0.60
2022-09-29T14:10:15.433Z,0.65
2022-09-29T14:12:42.155Z,0.60
2022-09-29T14:15:09.095Z,0.75
2022-09-29T14:17:37.242Z,1.17
2022-09-29T14:20:26.284Z,1.10
2022-09-29T14:22:55.616Z,0.90
2022-09-29T14:25:28.527Z,1.00
2022-09-29T14:27:59.768Z,0.82
2022-09-29T14:30:32.703Z,0.90
2022-09-29T14:33:04.076Z,0.90
2022-09-29T14:35:37.925Z,0.65
2022-09-29T14:38:29.723Z,0.57
2022-09-29T14:41:04.027Z,0.50
2022-09-29T14:43:43.510Z,0.50
2022-09-29T14:46:44.208Z,0.60
2022-09-29T14:49:52.243Z,0.55
2022-09-29T14:52:30.806Z,0.70
2022-09-29T14:55:16.395Z,0.63
2022-09-29T14:58:14.200Z,0.60
2022-09-29T15:00:46.783Z,0.60
2022-09-29T15:03:27.560Z,0.60
2022-09-29T15:06:16.969Z,0.60
2022-09-29T15:08:52.451Z,0.63
2022-09-29T15:14:01.814Z,0.40
2022-09-29T15:17:00.706Z,0.50
2022-09-29T15:19:55.225Z,0.50
2022-09-29T15:22:31.597Z,0.60
2022-09-29T15:25:10.849Z,0.52
2022-09-29T15:27:38.818Z,0.50
2022-09-29T15:30:06.092Z,0.70
2022-09-29T15:32:32.722Z,0.60
2022-09-29T15:35:06.582Z,0.50
2022-09-29T15:37:45.377Z,0.40
2022-09-29T15:40:15.640Z,0.50
2022-09-29T15:42:42.657Z,0.60
2022-09-29T15:45:16.916Z,0.70
2022-09-29T15:47:43.497Z,0.50
2022-09-29T15:50:20.202Z,0.68
2022-09-29T15:52:47.001Z,0.65
2022-09-29T15:55:16.848Z,0.70
2022-09-29T15:57:45.263Z,1.17
2022-09-29T16:00:20.903Z,0.90
2022-09-29T16:03:06.500Z,0.93
2022-09-29T16:05:38.218Z,0.70
2022-09-29T16:08:08.080Z,0.60
2022-09-29T16:10:42.740Z,0.70
2022-09-29T16:13:19.017Z,0.50
2022-09-29T16:15:46.424Z,0.50
2022-09-29T16:18:22.616Z,0.60
2022-09-29T16:20:49.287Z,0.57
2022-09-29T16:23:15.806Z,0.70
2022-09-29T16:25:42.408Z,0.50
2022-09-29T16:28:24.202Z,0.45
2022-09-29T16:31:07.300Z,0.60
2022-09-29T16:33:34.677Z,0.50
2022-09-29T16:36:05.969Z,0.60
2022-09-29T16:38:39.697Z,0.60
2022-09-29T16:41:30.802Z,0.70
2022-09-29T16:44:09.573Z,0.60
2022-09-29T16:46:42.278Z,0.68
2022-09-29T16:49:17.710Z,0.68
2022-09-29T16:51:45.352Z,0.60
2022-09-29T16:54:26.543Z,0.60
2022-09-29T16:57:18.069Z,0.60
2022-09-29T16:59:45.788Z,0.60
2022-09-29T17:02:12.649Z,0.70
2022-09-29T17:04:39.318Z,0.90
2022-09-29T17:07:06.152Z,0.70
2022-09-29T17:09:32.926Z,0.63
2022-09-29T17:11:59.607Z,0.60
2022-09-29T17:14:26.232Z,0.68
2022-09-29T17:16:52.873Z,0.70
2022-09-29T17:19:19.621Z,0.50
2022-09-29T17:21:46.351Z,0.50
2022-09-29T17:24:12.992Z,0.65
2022-09-29T17:26:44.202Z,0.60
2022-09-29T17:29:10.837Z,0.60
2022-09-29T17:31:37.384Z,0.60
2022-09-29T17:34:04.327Z,0.60
2022-09-29T17:36:30.922Z,0.50
2022-09-29T17:38:57.592Z,0.60
2022-09-29T17:41:24.240Z,0.60
2022-09-29T17:43:50.950Z,0.65
2022-09-29T17:46:17.831Z,0.70
2022-09-29T17:48:44.730Z,0.80
2022-09-29T17:51:15.473Z,0.52
2022-09-29T17:53:42.403Z,0.63
2022-09-29T17:56:24.642Z,0.80
2022-09-29T17:58:51.998Z,0.70
2022-09-29T18:01:24.926Z,0.70
2022-09-29T18:03:51.595Z,0.60
2022-09-29T18:06:19.662Z,0.70
2022-09-29T18:08:49.308Z,0.57
2022-09-29T18:11:20.429Z,0.60
2022-09-29T18:13:47.185Z,0.60
2022-09-29T18:16:18.576Z,0.90
2022-09-29T18:18:45.349Z,0.60
2022-09-29T18:21:12.718Z,0.82
2022-09-29T18:23:40.400Z,0.60
2022-09-29T18:26:07.133Z,0.80
2022-09-29T18:28:33.826Z,1.10
2022-09-29T18:31:23.439Z,1.10
2022-09-29T18:33:50.331Z,1.10
2022-09-29T18:36:17.733Z,0.95
2022-09-29T18:38:44.490Z,0.88
2022-09-29T18:41:14.254Z,1.00
2022-09-29T18:43:40.935Z,0.80
2022-09-29T18:46:07.739Z,0.90
2022-09-29T18:48:34.425Z,1.00
2022-09-29T18:51:01.339Z,1.10
2022-09-29T18:53:28.039Z,0.82
2022-09-29T18:55:55.993Z,1.02
2022-09-29T18:58:22.751Z,0.93
2022-09-29T19:00:53.084Z,0.90
2022-09-29T19:03:20.345Z,0.90
2022-09-29T19:05:47.311Z,0.80
2022-09-29T19:08:14.280Z,0.80
2022-09-29T19:10:41.296Z,0.90
2022-09-29T19:13:09.076Z,1.05
2022-09-29T19:15:36.583Z,0.80
2022-09-29T19:18:03.315Z,1.00
2022-09-29T19:20:29.861Z,1.10
2022-09-29T19:22:56.764Z,0.80
2022-09-29T19:25:26.872Z,0.82
2022-09-29T19:27:54.282Z,0.80
2022-09-29T19:30:21.330Z,1.00
2022-09-29T19:32:48.159Z,0.93
2022-09-29T19:35:16.760Z,0.70
2022-09-29T19:37:43.477Z,0.73
2022-09-29T19:40:11.141Z,0.73
2022-09-29T19:42:37.786Z,0.70
2022-09-29T19:45:05.323Z,0.80
2022-09-29T19:47:32.070Z,1.00
2022-09-29T19:49:58.703Z,1.00
2022-09-29T19:55:16.616Z,0.98
2022-09-29T19:57:43.208Z,0.93
2022-09-29T20:00:12.280Z,0.98
2022-09-29T20:02:39.089Z,0.90
2022-09-29T20:05:06.197Z,0.82
2022-09-29T20:07:32.832Z,0.90
2022-09-29T20:09:59.541Z,0.88
2022-09-29T20:12:26.173Z,0.77
2022-09-29T20:14:53.481Z,0.63
2022-09-29T20:17:20.190Z,0.90
2022-09-29T20:19:46.884Z,0.90
2022-09-29T20:22:13.680Z,0.90
2022-09-29T20:24:42.169Z,0.88
2022-09-29T20:27:08.857Z,0.90
2022-09-29T20:29:35.538Z,0.80
2022-09-29T20:32:02.244Z,0.98
2022-09-29T20:34:28.926Z,0.80
2022-09-29T20:36:55.625Z,0.90
2022-09-29T20:39:22.617Z,0.80
2022-09-29T20:41:49.207Z,0.80
2022-09-29T20:44:16.122Z,0.82
2022-09-29T20:46:42.757Z,0.85
2022-09-29T20:49:09.724Z,0.82
2022-09-29T20:51:38.167Z,0.77
2022-09-29T20:54:05.098Z,0.60
2022-09-29T20:56:31.945Z,0.80
2022-09-29T20:58:59.300Z,0.80
2022-09-29T21:01:27.617Z,0.80
2022-09-29T21:03:58.321Z,0.70
2022-09-29T21:06:28.813Z,0.80
2022-09-29T21:08:55.832Z,0.70
2022-09-29T21:11:22.545Z,0.70
2022-09-29T21:13:52.928Z,0.80
2022-09-29T21:16:19.773Z,0.68
2022-09-29T21:18:46.493Z,0.80
2022-09-29T21:21:13.213Z,0.80
2022-09-29T21:23:40.437Z,0.70
2022-09-29T21:26:09.934Z,0.80
2022-09-29T21:28:36.619Z,0.80
2022-09-29T21:31:05.303Z,0.70
2022-09-29T21:33:32.013Z,0.80
2022-09-29T21:35:59.090Z,0.80
2022-09-29T21:38:27.819Z,0.80
2022-09-29T21:40:54.430Z,1.00
2022-09-29T21:43:21.166Z,1.10
2022-09-29T21:45:47.872Z,0.90
2022-09-29T21:48:14.818Z,0.85
2022-09-29T21:50:41.504Z,0.90
2022-09-29T21:53:08.163Z,0.90
2022-09-29T21:55:35.075Z,0.90
2022-09-29T21:58:02.028Z,0.90
2022-09-29T22:00:28.976Z,0.80
2022-09-29T22:02:55.618Z,0.70
2022-09-29T22:05:22.566Z,0.90
2022-09-29T22:07:49.289Z,0.90
2022-09-29T22:10:16.013Z,0.77
2022-09-29T22:12:42.712Z,0.98
2022-09-29T22:15:09.477Z,0.77
2022-09-29T22:17:36.225Z,0.90
2022-09-29T22:20:02.832Z,1.00
2022-09-29T22:22:29.470Z,1.10
2022-09-29T22:24:56.102Z,1.00
2022-09-29T22:27:22.920Z,1.00
2022-09-29T22:29:49.591Z,0.95
2022-09-29T22:32:16.231Z,1.05
2022-09-29T22:34:43.328Z,0.90
2022-09-29T22:37:09.972Z,0.90
2022-09-29T22:39:36.643Z,0.95
2022-09-29T22:42:03.290Z,0.80
2022-09-29T22:44:30.068Z,0.90
2022-09-29T22:46:56.675Z,1.00
2022-09-29T22:49:23.861Z,0.88
2022-09-29T22:51:50.908Z,0.98
2022-09-29T22:54:17.612Z,0.88
2022-09-29T22:56:44.264Z,0.90
2022-09-29T22:59:10.925Z,0.85
2022-09-29T23:01:37.725Z,0.90
2022-09-29T23:04:04.553Z,0.85
2022-09-29T23:06:31.729Z,1.00
2022-09-29T23:08:58.357Z,0.98
2022-09-29T23:11:25.122Z,0.93
2022-09-29T23:13:52.074Z,1.08
2022-09-29T23:16:19.075Z,0.80
2022-09-29T23:18:45.987Z,0.85
2022-09-29T23:21:18.733Z,0.90
2022-09-29T23:23:46.101Z,0.90
2022-09-29T23:26:12.672Z,0.88
2022-09-29T23:28:39.313Z,1.00
2022-09-29T23:31:07.160Z,1.10
2022-09-29T23:33:33.972Z,1.10
2022-09-29T23:36:14.165Z,1.10
2022-09-29T23:38:41.861Z,1.00
2022-09-29T23:41:08.829Z,0.95
2022-09-29T23:43:35.761Z,0.98
2022-09-29T23:46:02.349Z,0.80
2022-09-29T23:48:29.278Z,0.90
2022-09-29T23:50:56.025Z,0.80
2022-09-29T23:53:22.632Z,0.80
2022-09-29T23:55:49.256Z,0.90
2022-09-29T23:58:15.903Z,0.90
